sensor_id;sensor_type;location;lat;lon;timestamp;P1;durP1;ratioP1;P2;durP2;ratioP2
11267;SDS011;72685;47.474;9.416;2024-03-22T00:00:28;3.90;;;3.60;;
11267;SDS011;72685;47.474;9.416;2024-03-22T00:02:53;4.80;;;4.00;;
11267;SDS011;72685;47.474;9.416;2024-03-22T00:05:19;4.07;;;3.67;;
11267;SDS011;72685;47.474;9.416;2024-03-22T00:07:46;5.70;;;4.20;;
11267;SDS011;72685;47.474;9.416;2024-03-22T00:10:12;4.37;;;4.07;;
11267;SDS011;72685;47.474;9.416;2024-03-22T00:12:38;4.70;;;4.20;;
11267;SDS011;72685;47.474;9.416;2024-03-22T00:15:03;5.33;;;3.83;;
11267;SDS011;72685;47.474;9.416;2024-03-22T00:17:29;4.67;;;4.10;;
11267;SDS011;72685;47.474;9.416;2024-03-22T00:19:55;6.10;;;4.40;;
11267;SDS011;72685;47.474;9.416;2024-03-22T00:22:21;3.87;;;3.43;;
11267;SDS011;72685;47.474;9.416;2024-03-22T00:24:47;6.07;;;4.07;;
11267;SDS011;72685;47.474;9.416;2024-03-22T00:27:12;4.83;;;3.50;;
11267;SDS011;72685;47.474;9.416;2024-03-22T00:29:37;4.60;;;3.53;;
11267;SDS011;72685;47.474;9.416;2024-03-22T00:32:03;4.50;;;3.90;;
11267;SDS011;72685;47.474;9.416;2024-03-22T00:34:29;5.03;;;4.20;;
11267;SDS011;72685;47.474;9.416;2024-03-22T00:36:55;3.43;;;3.17;;
11267;SDS011;72685;47.474;9.416;2024-03-22T00:39:20;4.80;;;3.80;;
11267;SDS011;72685;47.474;9.416;2024-03-22T00:41:46;5.73;;;4.17;;
11267;SDS011;72685;47.474;9.416;2024-03-22T00:44:11;3.73;;;3.37;;
11267;SDS011;72685;47.474;9.416;2024-03-22T00:46:36;3.90;;;3.60;;
11267;SDS011;72685;47.474;9.416;2024-03-22T00:49:02;3.70;;;3.37;;
11267;SDS011;72685;47.474;9.416;2024-03-22T00:51:27;9.23;;;4.40;;
11267;SDS011;72685;47.474;9.416;2024-03-22T00:53:53;4.63;;;3.90;;
11267;SDS011;72685;47.474;9.416;2024-03-22T00:56:18;5.03;;;3.80;;
11267;SDS011;72685;47.474;9.416;2024-03-22T00:58:44;10.00;;;4.13;;
11267;SDS011;72685;47.474;9.416;2024-03-22T01:01:09;4.90;;;4.40;;
11267;SDS011;72685;47.474;9.416;2024-03-22T01:03:34;5.37;;;3.43;;
11267;SDS011;72685;47.474;9.416;2024-03-22T01:06:00;4.33;;;3.93;;
11267;SDS011;72685;47.474;9.416;2024-03-22T01:08:27;4.60;;;4.03;;
11267;SDS011;72685;47.474;9.416;2024-03-22T01:10:52;4.07;;;3.67;;
11267;SDS011;72685;47.474;9.416;2024-03-22T01:13:18;4.33;;;3.93;;
11267;SDS011;72685;47.474;9.416;2024-03-22T01:15:43;4.03;;;3.63;;
11267;SDS011;72685;47.474;9.416;2024-03-22T01:18:11;3.50;;;3.17;;
11267;SDS011;72685;47.474;9.416;2024-03-22T01:20:36;4.07;;;3.63;;
11267;SDS011;72685;47.474;9.416;2024-03-22T01:23:01;4.87;;;3.87;;
11267;SDS011;72685;47.474;9.416;2024-03-22T01:25:27;6.70;;;4.03;;
11267;SDS011;72685;47.474;9.416;2024-03-22T01:27:53;4.00;;;3.53;;
11267;SDS011;72685;47.474;9.416;2024-03-22T01:30:18;3.57;;;3.27;;
11267;SDS011;72685;47.474;9.416;2024-03-22T01:32:43;5.07;;;4.13;;
11267;SDS011;72685;47.474;9.416;2024-03-22T01:35:09;6.20;;;4.10;;
11267;SDS011;72685;47.474;9.416;2024-03-22T01:37:34;6.50;;;3.80;;
11267;SDS011;72685;47.474;9.416;2024-03-22T01:40:00;4.70;;;3.80;;
11267;SDS011;72685;47.474;9.416;2024-03-22T01:42:25;3.83;;;3.47;;
11267;SDS011;72685;47.474;9.416;2024-03-22T01:44:51;3.57;;;3.30;;
11267;SDS011;72685;47.474;9.416;2024-03-22T01:47:16;4.87;;;3.47;;
11267;SDS011;72685;47.474;9.416;2024-03-22T01:49:42;3.97;;;3.60;;
11267;SDS011;72685;47.474;9.416;2024-03-22T01:52:08;3.93;;;3.53;;
11267;SDS011;72685;47.474;9.416;2024-03-22T01:54:34;10.20;;;4.00;;
11267;SDS011;72685;47.474;9.416;2024-03-22T01:56:59;4.80;;;3.57;;
11267;SDS011;72685;47.474;9.416;2024-03-22T01:59:26;8.80;;;3.50;;
11267;SDS011;72685;47.474;9.416;2024-03-22T02:01:53;4.47;;;3.23;;
11267;SDS011;72685;47.474;9.416;2024-03-22T02:04:18;4.30;;;3.90;;
11267;SDS011;72685;47.474;9.416;2024-03-22T02:06:43;6.23;;;3.70;;
11267;SDS011;72685;47.474;9.416;2024-03-22T02:09:09;3.87;;;3.57;;
11267;SDS011;72685;47.474;9.416;2024-03-22T02:11:34;5.60;;;3.97;;
11267;SDS011;72685;47.474;9.416;2024-03-22T02:14:02;5.87;;;3.70;;
11267;SDS011;72685;47.474;9.416;2024-03-22T02:16:28;5.33;;;4.50;;
11267;SDS011;72685;47.474;9.416;2024-03-22T02:18:53;5.47;;;3.93;;
11267;SDS011;72685;47.474;9.416;2024-03-22T02:21:19;3.30;;;3.07;;
11267;SDS011;72685;47.474;9.416;2024-03-22T02:23:44;3.63;;;3.23;;
11267;SDS011;72685;47.474;9.416;2024-03-22T02:26:09;4.40;;;4.00;;
11267;SDS011;72685;47.474;9.416;2024-03-22T02:28:35;5.67;;;3.77;;
11267;SDS011;72685;47.474;9.416;2024-03-22T02:31:01;4.37;;;3.97;;
11267;SDS011;72685;47.474;9.416;2024-03-22T02:33:27;3.93;;;3.63;;
11267;SDS011;72685;47.474;9.416;2024-03-22T02:35:53;3.77;;;3.40;;
11267;SDS011;72685;47.474;9.416;2024-03-22T02:38:19;6.10;;;3.93;;
11267;SDS011;72685;47.474;9.416;2024-03-22T02:40:46;5.77;;;3.73;;
11267;SDS011;72685;47.474;9.416;2024-03-22T02:43:12;5.30;;;4.00;;
11267;SDS011;72685;47.474;9.416;2024-03-22T02:45:38;6.37;;;4.10;;
11267;SDS011;72685;47.474;9.416;2024-03-22T02:48:04;5.00;;;3.43;;
11267;SDS011;72685;47.474;9.416;2024-03-22T02:50:33;5.03;;;3.70;;
11267;SDS011;72685;47.474;9.416;2024-03-22T02:53:00;3.30;;;3.00;;
11267;SDS011;72685;47.474;9.416;2024-03-22T02:55:25;4.87;;;3.37;;
11267;SDS011;72685;47.474;9.416;2024-03-22T02:57:51;3.87;;;3.53;;
11267;SDS011;72685;47.474;9.416;2024-03-22T03:00:16;5.43;;;4.13;;
11267;SDS011;72685;47.474;9.416;2024-03-22T03:02:43;4.00;;;3.60;;
11267;SDS011;72685;47.474;9.416;2024-03-22T03:05:08;4.43;;;4.03;;
11267;SDS011;72685;47.474;9.416;2024-03-22T03:07:35;8.37;;;4.20;;
11267;SDS011;72685;47.474;9.416;2024-03-22T03:10:00;7.97;;;4.00;;
11267;SDS011;72685;47.474;9.416;2024-03-22T03:12:26;4.83;;;3.47;;
11267;SDS011;72685;47.474;9.416;2024-03-22T03:14:51;7.07;;;4.20;;
11267;SDS011;72685;47.474;9.416;2024-03-22T03:17:16;4.10;;;3.73;;
11267;SDS011;72685;47.474;9.416;2024-03-22T03:19:42;6.03;;;4.07;;
11267;SDS011;72685;47.474;9.416;2024-03-22T03:22:07;4.03;;;3.70;;
11267;SDS011;72685;47.474;9.416;2024-03-22T03:24:32;7.00;;;4.10;;
11267;SDS011;72685;47.474;9.416;2024-03-22T03:26:58;4.03;;;3.73;;
11267;SDS011;72685;47.474;9.416;2024-03-22T03:29:23;4.00;;;3.67;;
11267;SDS011;72685;47.474;9.416;2024-03-22T03:31:48;4.57;;;4.17;;
11267;SDS011;72685;47.474;9.416;2024-03-22T03:34:14;4.67;;;3.63;;
11267;SDS011;72685;47.474;9.416;2024-03-22T03:36:39;6.63;;;3.90;;
11267;SDS011;72685;47.474;9.416;2024-03-22T03:39:05;4.57;;;3.30;;
11267;SDS011;72685;47.474;9.416;2024-03-22T03:41:30;4.70;;;4.23;;
11267;SDS011;72685;47.474;9.416;2024-03-22T03:43:55;4.00;;;3.73;;
11267;SDS011;72685;47.474;9.416;2024-03-22T03:46:21;4.20;;;3.80;;
11267;SDS011;72685;47.474;9.416;2024-03-22T03:48:46;4.30;;;3.90;;
11267;SDS011;72685;47.474;9.416;2024-03-22T03:51:12;3.90;;;3.60;;
11267;SDS011;72685;47.474;9.416;2024-03-22T03:53:37;5.07;;;3.80;;
11267;SDS011;72685;47.474;9.416;2024-03-22T03:56:02;3.90;;;3.50;;
11267;SDS011;72685;47.474;9.416;2024-03-22T03:58:28;5.43;;;4.03;;
11267;SDS011;72685;47.474;9.416;2024-03-22T04:00:53;4.17;;;3.77;;
11267;SDS011;72685;47.474;9.416;2024-03-22T04:03:18;4.17;;;3.87;;
11267;SDS011;72685;47.474;9.416;2024-03-22T04:05:44;4.63;;;3.33;;
11267;SDS011;72685;47.474;9.416;2024-03-22T04:08:09;4.23;;;3.93;;
11267;SDS011;72685;47.474;9.416;2024-03-22T04:10:35;5.23;;;4.13;;
11267;SDS011;72685;47.474;9.416;2024-03-22T04:13:00;6.07;;;3.57;;
11267;SDS011;72685;47.474;9.416;2024-03-22T04:15:25;4.80;;;3.77;;
11267;SDS011;72685;47.474;9.416;2024-03-22T04:17:51;6.20;;;4.00;;
11267;SDS011;72685;47.474;9.416;2024-03-22T04:20:16;4.40;;;3.33;;
11267;SDS011;72685;47.474;9.416;2024-03-22T04:22:41;3.63;;;3.20;;
11267;SDS011;72685;47.474;9.416;2024-03-22T04:25:07;4.20;;;3.73;;
11267;SDS011;72685;47.474;9.416;2024-03-22T04:27:35;3.70;;;3.40;;
11267;SDS011;72685;47.474;9.416;2024-03-22T04:30:01;4.27;;;3.57;;
11267;SDS011;72685;47.474;9.416;2024-03-22T04:32:27;4.33;;;3.77;;
11267;SDS011;72685;47.474;9.416;2024-03-22T04:34:52;7.37;;;5.00;;
11267;SDS011;72685;47.474;9.416;2024-03-22T04:37:20;4.23;;;3.83;;
11267;SDS011;72685;47.474;9.416;2024-03-22T04:39:45;3.97;;;3.30;;
11267;SDS011;72685;47.474;9.416;2024-03-22T04:42:11;5.37;;;3.90;;
11267;SDS011;72685;47.474;9.416;2024-03-22T04:44:36;3.73;;;3.30;;
11267;SDS011;72685;47.474;9.416;2024-03-22T04:47:02;3.40;;;3.17;;
11267;SDS011;72685;47.474;9.416;2024-03-22T04:49:27;4.27;;;3.70;;
11267;SDS011;72685;47.474;9.416;2024-03-22T04:51:52;4.07;;;3.67;;
11267;SDS011;72685;47.474;9.416;2024-03-22T04:54:18;3.93;;;3.60;;
11267;SDS011;72685;47.474;9.416;2024-03-22T04:56:43;4.13;;;3.50;;
11267;SDS011;72685;47.474;9.416;2024-03-22T04:59:09;3.60;;;3.30;;
11267;SDS011;72685;47.474;9.416;2024-03-22T05:01:34;5.10;;;3.80;;
11267;SDS011;72685;47.474;9.416;2024-03-22T05:03:59;5.47;;;3.73;;
11267;SDS011;72685;47.474;9.416;2024-03-22T05:06:25;3.83;;;3.53;;
11267;SDS011;72685;47.474;9.416;2024-03-22T05:08:50;3.80;;;3.50;;
11267;SDS011;72685;47.474;9.416;2024-03-22T05:11:15;3.87;;;3.53;;
11267;SDS011;72685;47.474;9.416;2024-03-22T05:13:41;4.00;;;3.70;;
11267;SDS011;72685;47.474;9.416;2024-03-22T05:16:06;4.30;;;3.50;;
11267;SDS011;72685;47.474;9.416;2024-03-22T05:18:32;5.83;;;4.43;;
11267;SDS011;72685;47.474;9.416;2024-03-22T05:20:58;4.87;;;3.87;;
11267;SDS011;72685;47.474;9.416;2024-03-22T05:23:23;4.47;;;3.60;;
11267;SDS011;72685;47.474;9.416;2024-03-22T05:25:48;5.63;;;4.27;;
11267;SDS011;72685;47.474;9.416;2024-03-22T05:28:14;5.53;;;4.40;;
11267;SDS011;72685;47.474;9.416;2024-03-22T05:30:39;4.60;;;3.50;;
11267;SDS011;72685;47.474;9.416;2024-03-22T05:33:04;6.83;;;3.43;;
11267;SDS011;72685;47.474;9.416;2024-03-22T05:35:30;3.67;;;3.40;;
11267;SDS011;72685;47.474;9.416;2024-03-22T05:37:55;4.40;;;3.17;;
11267;SDS011;72685;47.474;9.416;2024-03-22T05:40:21;4.23;;;3.80;;
11267;SDS011;72685;47.474;9.416;2024-03-22T05:42:47;5.93;;;3.80;;
11267;SDS011;72685;47.474;9.416;2024-03-22T05:45:12;7.80;;;4.17;;
11267;SDS011;72685;47.474;9.416;2024-03-22T05:47:37;4.40;;;3.70;;
11267;SDS011;72685;47.474;9.416;2024-03-22T05:50:03;4.27;;;3.70;;
11267;SDS011;72685;47.474;9.416;2024-03-22T05:52:31;6.57;;;3.87;;
11267;SDS011;72685;47.474;9.416;2024-03-22T05:54:57;6.40;;;4.17;;
11267;SDS011;72685;47.474;9.416;2024-03-22T05:57:23;4.60;;;4.17;;
11267;SDS011;72685;47.474;9.416;2024-03-22T05:59:48;6.20;;;3.97;;
11267;SDS011;72685;47.474;9.416;2024-03-22T06:02:14;4.97;;;3.80;;
11267;SDS011;72685;47.474;9.416;2024-03-22T06:04:40;5.00;;;3.60;;
11267;SDS011;72685;47.474;9.416;2024-03-22T06:07:06;4.13;;;3.80;;
11267;SDS011;72685;47.474;9.416;2024-03-22T06:09:31;5.47;;;4.20;;
11267;SDS011;72685;47.474;9.416;2024-03-22T06:12:05;4.27;;;3.70;;
11267;SDS011;72685;47.474;9.416;2024-03-22T06:14:31;5.07;;;3.67;;
11267;SDS011;72685;47.474;9.416;2024-03-22T06:16:57;3.87;;;3.50;;
11267;SDS011;72685;47.474;9.416;2024-03-22T06:19:23;4.33;;;3.80;;
11267;SDS011;72685;47.474;9.416;2024-03-22T06:21:48;4.83;;;3.50;;
11267;SDS011;72685;47.474;9.416;2024-03-22T06:24:14;5.20;;;4.70;;
11267;SDS011;72685;47.474;9.416;2024-03-22T06:26:39;5.60;;;3.97;;
11267;SDS011;72685;47.474;9.416;2024-03-22T06:29:05;7.03;;;5.13;;
11267;SDS011;72685;47.474;9.416;2024-03-22T06:31:30;4.90;;;3.87;;
11267;SDS011;72685;47.474;9.416;2024-03-22T06:33:56;5.37;;;3.67;;
11267;SDS011;72685;47.474;9.416;2024-03-22T06:36:27;5.47;;;4.60;;
11267;SDS011;72685;47.474;9.416;2024-03-22T06:38:56;6.90;;;4.60;;
11267;SDS011;72685;47.474;9.416;2024-03-22T06:41:22;6.27;;;4.30;;
11267;SDS011;72685;47.474;9.416;2024-03-22T06:43:47;5.13;;;4.50;;
11267;SDS011;72685;47.474;9.416;2024-03-22T06:46:12;7.90;;;5.37;;
11267;SDS011;72685;47.474;9.416;2024-03-22T06:48:38;7.20;;;5.50;;
11267;SDS011;72685;47.474;9.416;2024-03-22T06:51:03;7.47;;;5.70;;
11267;SDS011;72685;47.474;9.416;2024-03-22T06:53:29;9.30;;;5.63;;
11267;SDS011;72685;47.474;9.416;2024-03-22T06:55:54;7.10;;;5.60;;
11267;SDS011;72685;47.474;9.416;2024-03-22T06:58:19;8.43;;;5.50;;
11267;SDS011;72685;47.474;9.416;2024-03-22T07:00:45;6.00;;;5.47;;
11267;SDS011;72685;47.474;9.416;2024-03-22T07:03:10;6.13;;;5.40;;
11267;SDS011;72685;47.474;9.416;2024-03-22T07:05:35;7.30;;;5.87;;
11267;SDS011;72685;47.474;9.416;2024-03-22T07:08:01;7.17;;;5.93;;
11267;SDS011;72685;47.474;9.416;2024-03-22T07:10:26;8.13;;;5.93;;
11267;SDS011;72685;47.474;9.416;2024-03-22T07:12:56;5.70;;;5.17;;
11267;SDS011;72685;47.474;9.416;2024-03-22T07:15:24;6.27;;;5.13;;
11267;SDS011;72685;47.474;9.416;2024-03-22T07:17:50;6.53;;;5.73;;
11267;SDS011;72685;47.474;9.416;2024-03-22T07:20:16;5.63;;;5.10;;
11267;SDS011;72685;47.474;9.416;2024-03-22T07:22:43;5.97;;;5.37;;
11267;SDS011;72685;47.474;9.416;2024-03-22T07:25:08;5.17;;;4.63;;
11267;SDS011;72685;47.474;9.416;2024-03-22T07:27:36;7.83;;;5.33;;
11267;SDS011;72685;47.474;9.416;2024-03-22T07:30:02;10.93;;;5.20;;
11267;SDS011;72685;47.474;9.416;2024-03-22T07:32:29;10.97;;;6.27;;
11267;SDS011;72685;47.474;9.416;2024-03-22T07:34:55;5.97;;;4.97;;
11267;SDS011;72685;47.474;9.416;2024-03-22T07:37:20;5.33;;;4.47;;
11267;SDS011;72685;47.474;9.416;2024-03-22T07:39:45;6.73;;;5.43;;
11267;SDS011;72685;47.474;9.416;2024-03-22T07:42:11;5.70;;;5.17;;
11267;SDS011;72685;47.474;9.416;2024-03-22T07:44:36;8.23;;;5.50;;
11267;SDS011;72685;47.474;9.416;2024-03-22T07:47:01;8.10;;;5.07;;
11267;SDS011;72685;47.474;9.416;2024-03-22T07:49:27;7.50;;;4.80;;
11267;SDS011;72685;47.474;9.416;2024-03-22T07:51:52;10.50;;;5.70;;
11267;SDS011;72685;47.474;9.416;2024-03-22T07:54:18;6.87;;;5.13;;
11267;SDS011;72685;47.474;9.416;2024-03-22T07:56:43;9.83;;;5.50;;
11267;SDS011;72685;47.474;9.416;2024-03-22T07:59:09;9.03;;;7.17;;
11267;SDS011;72685;47.474;9.416;2024-03-22T08:01:34;12.80;;;8.80;;
11267;SDS011;72685;47.474;9.416;2024-03-22T08:03:59;17.67;;;12.23;;
11267;SDS011;72685;47.474;9.416;2024-03-22T08:06:25;27.20;;;15.40;;
11267;SDS011;72685;47.474;9.416;2024-03-22T08:08:50;45.00;;;25.20;;
11267;SDS011;72685;47.474;9.416;2024-03-22T08:11:15;34.73;;;21.90;;
11267;SDS011;72685;47.474;9.416;2024-03-22T08:13:41;24.97;;;16.77;;
11267;SDS011;72685;47.474;9.416;2024-03-22T08:16:06;17.13;;;11.83;;
11267;SDS011;72685;47.474;9.416;2024-03-22T08:18:32;16.73;;;10.50;;
11267;SDS011;72685;47.474;9.416;2024-03-22T08:21:00;15.27;;;10.37;;
11267;SDS011;72685;47.474;9.416;2024-03-22T08:23:25;11.13;;;8.67;;
11267;SDS011;72685;47.474;9.416;2024-03-22T08:25:50;12.87;;;8.43;;
11267;SDS011;72685;47.474;9.416;2024-03-22T08:28:16;10.17;;;8.27;;
11267;SDS011;72685;47.474;9.416;2024-03-22T08:30:42;8.37;;;7.40;;
11267;SDS011;72685;47.474;9.416;2024-03-22T08:33:08;8.57;;;7.13;;
11267;SDS011;72685;47.474;9.416;2024-03-22T08:35:34;7.80;;;7.00;;
11267;SDS011;72685;47.474;9.416;2024-03-22T08:37:59;10.03;;;7.30;;
11267;SDS011;72685;47.474;9.416;2024-03-22T08:40:24;8.33;;;7.17;;
11267;SDS011;72685;47.474;9.416;2024-03-22T08:42:50;9.77;;;7.60;;
11267;SDS011;72685;47.474;9.416;2024-03-22T08:45:15;9.50;;;7.93;;
11267;SDS011;72685;47.474;9.416;2024-03-22T08:47:41;8.47;;;7.67;;
11267;SDS011;72685;47.474;9.416;2024-03-22T08:50:07;8.63;;;7.33;;
11267;SDS011;72685;47.474;9.416;2024-03-22T08:52:33;10.03;;;7.43;;
11267;SDS011;72685;47.474;9.416;2024-03-22T08:55:00;10.03;;;7.80;;
11267;SDS011;72685;47.474;9.416;2024-03-22T08:57:26;8.57;;;7.60;;
11267;SDS011;72685;47.474;9.416;2024-03-22T08:59:51;8.17;;;7.17;;
11267;SDS011;72685;47.474;9.416;2024-03-22T09:02:16;9.43;;;7.07;;
11267;SDS011;72685;47.474;9.416;2024-03-22T09:04:42;7.60;;;6.83;;
11267;SDS011;72685;47.474;9.416;2024-03-22T09:07:07;11.33;;;6.57;;
11267;SDS011;72685;47.474;9.416;2024-03-22T09:09:33;9.13;;;6.97;;
11267;SDS011;72685;47.474;9.416;2024-03-22T09:11:58;8.90;;;6.63;;
11267;SDS011;72685;47.474;9.416;2024-03-22T09:14:24;8.97;;;6.60;;
11267;SDS011;72685;47.474;9.416;2024-03-22T09:16:49;7.03;;;6.33;;
11267;SDS011;72685;47.474;9.416;2024-03-22T09:19:14;7.17;;;6.00;;
11267;SDS011;72685;47.474;9.416;2024-03-22T09:21:40;6.30;;;5.70;;
11267;SDS011;72685;47.474;9.416;2024-03-22T09:24:05;6.83;;;6.20;;
11267;SDS011;72685;47.474;9.416;2024-03-22T09:26:32;6.60;;;5.90;;
11267;SDS011;72685;47.474;9.416;2024-03-22T09:28:57;7.63;;;6.10;;
11267;SDS011;72685;47.474;9.416;2024-03-22T09:31:23;6.80;;;6.00;;
11267;SDS011;72685;47.474;9.416;2024-03-22T09:33:48;7.33;;;5.87;;
11267;SDS011;72685;47.474;9.416;2024-03-22T09:36:14;7.53;;;5.97;;
11267;SDS011;72685;47.474;9.416;2024-03-22T09:38:39;7.50;;;6.70;;
11267;SDS011;72685;47.474;9.416;2024-03-22T09:41:04;7.97;;;6.90;;
11267;SDS011;72685;47.474;9.416;2024-03-22T09:43:31;8.83;;;6.43;;
11267;SDS011;72685;47.474;9.416;2024-03-22T09:45:59;7.63;;;5.87;;
11267;SDS011;72685;47.474;9.416;2024-03-22T09:48:25;6.47;;;5.83;;
11267;SDS011;72685;47.474;9.416;2024-03-22T09:50:52;8.57;;;6.27;;
11267;SDS011;72685;47.474;9.416;2024-03-22T09:53:19;10.60;;;7.57;;
11267;SDS011;72685;47.474;9.416;2024-03-22T09:55:46;7.77;;;6.77;;
11267;SDS011;72685;47.474;9.416;2024-03-22T09:58:13;7.57;;;6.87;;
11267;SDS011;72685;47.474;9.416;2024-03-22T10:00:38;7.50;;;6.67;;
11267;SDS011;72685;47.474;9.416;2024-03-22T10:03:04;6.60;;;5.43;;
11267;SDS011;72685;47.474;9.416;2024-03-22T10:05:30;7.40;;;6.07;;
11267;SDS011;72685;47.474;9.416;2024-03-22T10:07:56;7.67;;;6.10;;
11267;SDS011;72685;47.474;9.416;2024-03-22T10:10:21;9.67;;;6.20;;
11267;SDS011;72685;47.474;9.416;2024-03-22T10:12:48;6.57;;;5.60;;
11267;SDS011;72685;47.474;9.416;2024-03-22T10:15:13;7.63;;;6.63;;
11267;SDS011;72685;47.474;9.416;2024-03-22T10:17:39;6.70;;;6.00;;
11267;SDS011;72685;47.474;9.416;2024-03-22T10:20:05;7.13;;;6.43;;
11267;SDS011;72685;47.474;9.416;2024-03-22T10:22:48;7.17;;;5.80;;
11267;SDS011;72685;47.474;9.416;2024-03-22T10:25:14;6.60;;;6.00;;
11267;SDS011;72685;47.474;9.416;2024-03-22T10:27:40;6.17;;;5.57;;
11267;SDS011;72685;47.474;9.416;2024-03-22T10:30:07;6.97;;;5.23;;
11267;SDS011;72685;47.474;9.416;2024-03-22T10:32:35;6.63;;;5.90;;
11267;SDS011;72685;47.474;9.416;2024-03-22T10:35:02;6.40;;;5.70;;
11267;SDS011;72685;47.474;9.416;2024-03-22T10:37:31;5.80;;;5.13;;
11267;SDS011;72685;47.474;9.416;2024-03-22T10:40:01;8.23;;;5.70;;
11267;SDS011;72685;47.474;9.416;2024-03-22T10:42:32;7.47;;;6.20;;
11267;SDS011;72685;47.474;9.416;2024-03-22T10:44:59;7.00;;;5.50;;
11267;SDS011;72685;47.474;9.416;2024-03-22T10:47:26;6.87;;;6.00;;
11267;SDS011;72685;47.474;9.416;2024-03-22T10:49:56;5.80;;;5.13;;
11267;SDS011;72685;47.474;9.416;2024-03-22T10:52:31;7.33;;;5.07;;
11267;SDS011;72685;47.474;9.416;2024-03-22T10:55:00;6.23;;;5.67;;
11267;SDS011;72685;47.474;9.416;2024-03-22T10:57:28;6.27;;;5.77;;
11267;SDS011;72685;47.474;9.416;2024-03-22T10:59:54;6.20;;;5.10;;
11267;SDS011;72685;47.474;9.416;2024-03-22T11:02:20;7.70;;;5.93;;
11267;SDS011;72685;47.474;9.416;2024-03-22T11:04:58;6.53;;;5.93;;
11267;SDS011;72685;47.474;9.416;2024-03-22T11:07:28;5.97;;;5.37;;
11267;SDS011;72685;47.474;9.416;2024-03-22T11:09:57;5.60;;;5.00;;
11267;SDS011;72685;47.474;9.416;2024-03-22T11:12:26;6.23;;;5.50;;
11267;SDS011;72685;47.474;9.416;2024-03-22T11:14:55;5.77;;;5.03;;
11267;SDS011;72685;47.474;9.416;2024-03-22T11:17:20;6.17;;;4.60;;
11267;SDS011;72685;47.474;9.416;2024-03-22T11:19:50;6.33;;;5.73;;
11267;SDS011;72685;47.474;9.416;2024-03-22T11:22:17;6.00;;;5.40;;
11267;SDS011;72685;47.474;9.416;2024-03-22T11:24:42;7.40;;;5.67;;
11267;SDS011;72685;47.474;9.416;2024-03-22T11:27:08;7.50;;;5.83;;
11267;SDS011;72685;47.474;9.416;2024-03-22T11:29:36;5.73;;;5.20;;
11267;SDS011;72685;47.474;9.416;2024-03-22T11:32:04;6.00;;;5.20;;
11267;SDS011;72685;47.474;9.416;2024-03-22T11:34:30;5.77;;;5.27;;
11267;SDS011;72685;47.474;9.416;2024-03-22T11:36:55;6.10;;;5.50;;
11267;SDS011;72685;47.474;9.416;2024-03-22T11:39:21;6.70;;;5.37;;
11267;SDS011;72685;47.474;9.416;2024-03-22T11:41:46;6.23;;;5.47;;
11267;SDS011;72685;47.474;9.416;2024-03-22T11:44:14;5.50;;;5.00;;
11267;SDS011;72685;47.474;9.416;2024-03-22T11:46:41;7.93;;;5.43;;
11267;SDS011;72685;47.474;9.416;2024-03-22T11:49:07;5.50;;;5.00;;
11267;SDS011;72685;47.474;9.416;2024-03-22T11:51:32;7.03;;;5.13;;
11267;SDS011;72685;47.474;9.416;2024-03-22T11:53:57;8.57;;;5.03;;
11267;SDS011;72685;47.474;9.416;2024-03-22T11:56:24;5.20;;;4.70;;
11267;SDS011;72685;47.474;9.416;2024-03-22T11:58:57;5.00;;;4.50;;
11267;SDS011;72685;47.474;9.416;2024-03-22T12:01:24;7.77;;;5.33;;
11267;SDS011;72685;47.474;9.416;2024-03-22T12:03:49;5.30;;;4.80;;
11267;SDS011;72685;47.474;9.416;2024-03-22T12:06:15;5.07;;;4.47;;
11267;SDS011;72685;47.474;9.416;2024-03-22T12:08:40;4.93;;;4.53;;
11267;SDS011;72685;47.474;9.416;2024-03-22T12:11:09;6.53;;;4.40;;
11267;SDS011;72685;47.474;9.416;2024-03-22T12:13:35;5.30;;;4.80;;
11267;SDS011;72685;47.474;9.416;2024-03-22T12:16:00;5.07;;;4.53;;
11267;SDS011;72685;47.474;9.416;2024-03-22T12:18:27;5.07;;;4.57;;
11267;SDS011;72685;47.474;9.416;2024-03-22T12:20:52;5.20;;;4.70;;
11267;SDS011;72685;47.474;9.416;2024-03-22T12:23:18;6.67;;;5.00;;
11267;SDS011;72685;47.474;9.416;2024-03-22T12:25:43;4.93;;;4.27;;
11267;SDS011;72685;47.474;9.416;2024-03-22T12:28:08;5.30;;;4.13;;
11267;SDS011;72685;47.474;9.416;2024-03-22T12:30:34;4.67;;;3.93;;
11267;SDS011;72685;47.474;9.416;2024-03-22T12:32:59;4.50;;;4.07;;
11267;SDS011;72685;47.474;9.416;2024-03-22T12:35:26;4.60;;;4.20;;
11267;SDS011;72685;47.474;9.416;2024-03-22T12:37:51;4.47;;;4.07;;
11267;SDS011;72685;47.474;9.416;2024-03-22T12:40:16;4.87;;;3.93;;
11267;SDS011;72685;47.474;9.416;2024-03-22T12:42:42;4.27;;;3.87;;
11267;SDS011;72685;47.474;9.416;2024-03-22T12:45:07;4.83;;;4.03;;
11267;SDS011;72685;47.474;9.416;2024-03-22T12:47:33;4.83;;;4.10;;
11267;SDS011;72685;47.474;9.416;2024-03-22T12:49:58;5.67;;;3.87;;
11267;SDS011;72685;47.474;9.416;2024-03-22T12:52:24;4.97;;;3.93;;
11267;SDS011;72685;47.474;9.416;2024-03-22T12:54:49;3.87;;;3.57;;
11267;SDS011;72685;47.474;9.416;2024-03-22T12:57:14;5.33;;;3.43;;
11267;SDS011;72685;47.474;9.416;2024-03-22T12:59:40;3.37;;;3.07;;
11267;SDS011;72685;47.474;9.416;2024-03-22T13:02:05;3.97;;;3.30;;
11267;SDS011;72685;47.474;9.416;2024-03-22T13:04:33;3.67;;;3.37;;
11267;SDS011;72685;47.474;9.416;2024-03-22T13:06:58;4.37;;;3.73;;
11267;SDS011;72685;47.474;9.416;2024-03-22T13:09:23;4.63;;;3.63;;
11267;SDS011;72685;47.474;9.416;2024-03-22T13:11:49;3.17;;;2.97;;
11267;SDS011;72685;47.474;9.416;2024-03-22T13:14:14;3.70;;;3.40;;
11267;SDS011;72685;47.474;9.416;2024-03-22T13:16:40;3.90;;;3.50;;
11267;SDS011;72685;47.474;9.416;2024-03-22T13:19:06;3.63;;;3.20;;
11267;SDS011;72685;47.474;9.416;2024-03-22T13:21:33;6.57;;;3.40;;
11267;SDS011;72685;47.474;9.416;2024-03-22T13:23:59;5.17;;;3.23;;
11267;SDS011;72685;47.474;9.416;2024-03-22T13:26:25;3.03;;;2.83;;
11267;SDS011;72685;47.474;9.416;2024-03-22T13:28:50;3.00;;;2.73;;
11267;SDS011;72685;47.474;9.416;2024-03-22T13:31:16;3.73;;;3.10;;
11267;SDS011;72685;47.474;9.416;2024-03-22T13:33:42;3.73;;;3.50;;
11267;SDS011;72685;47.474;9.416;2024-03-22T13:36:07;5.57;;;3.83;;
11267;SDS011;72685;47.474;9.416;2024-03-22T13:38:33;3.63;;;3.33;;
11267;SDS011;72685;47.474;9.416;2024-03-22T13:40:59;7.30;;;3.47;;
11267;SDS011;72685;47.474;9.416;2024-03-22T13:43:25;3.37;;;3.10;;
11267;SDS011;72685;47.474;9.416;2024-03-22T13:45:54;4.97;;;4.03;;
11267;SDS011;72685;47.474;9.416;2024-03-22T13:48:23;3.43;;;3.10;;
11267;SDS011;72685;47.474;9.416;2024-03-22T13:50:53;4.10;;;3.70;;
11267;SDS011;72685;47.474;9.416;2024-03-22T13:53:19;6.33;;;3.23;;
11267;SDS011;72685;47.474;9.416;2024-03-22T13:55:49;4.73;;;4.03;;
11267;SDS011;72685;47.474;9.416;2024-03-22T13:58:15;4.53;;;3.97;;
11267;SDS011;72685;47.474;9.416;2024-03-22T14:00:40;4.63;;;4.20;;
11267;SDS011;72685;47.474;9.416;2024-03-22T14:03:06;6.47;;;4.23;;
11267;SDS011;72685;47.474;9.416;2024-03-22T14:05:31;3.73;;;3.43;;
11267;SDS011;72685;47.474;9.416;2024-03-22T14:08:00;4.27;;;3.67;;
11267;SDS011;72685;47.474;9.416;2024-03-22T14:10:25;3.57;;;3.27;;
11267;SDS011;72685;47.474;9.416;2024-03-22T14:12:56;4.13;;;3.83;;
11267;SDS011;72685;47.474;9.416;2024-03-22T14:15:21;4.70;;;3.80;;
11267;SDS011;72685;47.474;9.416;2024-03-22T14:17:49;6.17;;;3.50;;
11267;SDS011;72685;47.474;9.416;2024-03-22T14:20:15;3.63;;;3.17;;
11267;SDS011;72685;47.474;9.416;2024-03-22T14:22:41;5.53;;;3.50;;
11267;SDS011;72685;47.474;9.416;2024-03-22T14:25:07;4.27;;;3.23;;
11267;SDS011;72685;47.474;9.416;2024-03-22T14:27:36;4.07;;;3.30;;
11267;SDS011;72685;47.474;9.416;2024-03-22T14:30:02;3.33;;;3.03;;
11267;SDS011;72685;47.474;9.416;2024-03-22T14:32:31;5.73;;;3.80;;
11267;SDS011;72685;47.474;9.416;2024-03-22T14:34:57;4.93;;;4.30;;
11267;SDS011;72685;47.474;9.416;2024-03-22T14:37:22;5.90;;;3.60;;